Flight Track Log - Related Links

Times and Time Zones

All times are in EDT time to prevent confusion due to time zone crossing. See the UAL1174 flight status page for this flight to view local times or setup timezone preferences in your user account.

Time Position Orientation Groundspeed Altitude Reporting Facility
EDT Latitude Longitude Course Direction KTS MPH feet Rate Location/Type
Mon 08:41:15 AM 40.6741 -74.1996 33° Northeast  Level FlightAware Approximate
Mon 08:42:15 AM 40.6201 -74.3299 51° Northeast  Level FlightAware Approximate
Mon 08:43:06 AM 40.7278 -74.1531 277° West 179 206 2,100  Level New York Center
Mon 08:44:03 AM 40.7342 -74.2189 235° Southwest 251 289 5,100 3,735 Climbing New York Center
Mon 08:44:44 AM 40.7000 -74.2833 246° West 271 312 8,200 3,505 Climbing New York TRACON
Mon 08:45:44 AM 40.6667 -74.3833 241° Southwest 294 338 11,000 2,653 Climbing New York TRACON
Mon 08:48:03 AM 40.5583 -74.6444 241° Southwest 365 420 17,000 1,930 Climbing New York Center
Mon 08:49:03 AM 40.5064 -74.7669 231° Southwest 377 434 17,400 1,190 Climbing New York Center
Mon 08:50:04 AM 40.4447 -74.8672 230° Southwest 396 456 19,400 2,479 Climbing New York Center
Mon 08:51:04 AM 40.3653 -74.9931 232° Southwest 411 473 22,400 2,579 Climbing New York Center
Mon 08:52:05 AM 40.3008 -75.1008 231° Southwest 411 473 24,600 2,115 Climbing New York Center
Mon 08:53:06 AM 40.2186 -75.2344 232° Southwest 427 491 26,700 1,916 Climbing New York Center
Mon 08:54:04 AM 40.1519 -75.3469 229° Southwest 441 507 28,400 1,916 Climbing New York Center
Mon 08:55:05 AM 40.0700 -75.4689 226° Southwest 446 513 30,500 2,083 Climbing New York Center
Mon 08:56:05 AM 39.9839 -75.5850 228° Southwest 456 525 32,600 1,736 Climbing New York Center
Mon 08:57:06 AM 39.8997 -75.7064 231° Southwest 456 525 34,000 1,725 Climbing New York Center
Mon 08:58:52 AM 39.7589 -75.9289 232° Southwest 428 493 37,400 1,429 Climbing Washington Center
Mon 08:59:54 AM 39.6856 -76.0500 230° Southwest 428 493 38,000 293 Climbing Washington Center
Mon 09:00:55 AM 39.6103 -76.1653 230° Southwest 428 493 38,000 -50 Level Washington Center
Mon 09:01:53 AM 39.5344 -76.2831 231° Southwest 428 493 37,900  Descending Washington Center
Mon 09:02:54 AM 39.4608 -76.4006 230° Southwest 428 493 38,000 49 Climbing Washington Center
Mon 09:03:55 AM 39.3828 -76.5206 229° Southwest 428 493 38,000  Level Washington Center
Mon 09:04:55 AM 39.3069 -76.6350 231° Southwest 428 493 38,000  Level Washington Center
Mon 09:05:52 AM 39.2308 -76.7544 231° Southwest 428 493 38,000  Level Washington Center
Mon 09:06:53 AM 39.1567 -76.8711 230° Southwest 428 493 38,000  Level Washington Center
Mon 09:07:53 AM 39.0803 -76.9875 224° Southwest 428 493 38,000  Level Washington Center
Mon 09:08:54 AM 38.9958 -77.0925 221° Southwest 428 493 38,000  Level Washington Center
Mon 09:09:55 AM 38.9028 -77.1947 220° Southwest 428 493 38,000  Level Washington Center
Mon 09:10:53 AM 38.8094 -77.2967 220° Southwest 439 505 38,000  Level Washington Center
Mon 09:11:53 AM 38.7186 -77.3956 220° Southwest 444 511 38,000  Level Washington Center
Mon 09:12:55 AM 38.6253 -77.4969 220° Southwest 439 505 38,000  Level Washington Center
Mon 09:13:55 AM 38.5319 -77.5981 220° Southwest 439 505 38,000  Level Washington Center
Mon 09:14:53 AM 38.4383 -77.6989 220° Southwest 439 505 38,000  Level Washington Center
Mon 09:15:54 AM 38.3447 -77.7994 220° Southwest 439 505 38,000  Level Washington Center
Mon 09:16:54 AM 38.2492 -77.9000 221° Southwest 439 505 38,000  Level Washington Center
Mon 09:17:53 AM 38.1575 -78.0000 219° Southwest 439 505 38,000  Level Washington Center
Mon 09:18:54 AM 38.0636 -78.0972 220° Southwest 439 505 38,000  Level Washington Center
Mon 09:19:55 AM 37.9611 -78.2072 216° Southwest 439 505 38,000  Level Washington Center
Mon 09:20:53 AM 37.8633 -78.2983 217° Southwest 439 505 38,000  Level Washington Center
Mon 09:21:53 AM 37.7631 -78.3947 217° Southwest 450 518 38,000  Level Washington Center
Mon 09:22:54 AM 37.6650 -78.4881 216° Southwest 450 518 38,000  Level Washington Center
Mon 09:23:55 AM 37.5647 -78.5786 218° Southwest 450 518 38,000  Level Washington Center
Mon 09:24:53 AM 37.4769 -78.6642 216° Southwest 450 518 38,000  Level Washington Center
Mon 09:25:54 AM 37.3764 -78.7567 216° Southwest 450 518 38,000  Level Washington Center
Mon 09:26:55 AM 37.2739 -78.8517 216° Southwest 450 518 38,000  Level Washington Center
Mon 09:27:53 AM 37.1733 -78.9439 217° Southwest 450 518 38,000  Level Washington Center
Mon 09:28:54 AM 37.0747 -79.0358 217° Southwest 450 518 38,000  Level Washington Center
Mon 09:29:55 AM 36.9653 -79.1375 217° Southwest 450 518 38,000  Level Washington Center
Mon 09:30:53 AM 36.8667 -79.2292 216° Southwest 450 518 38,000  Level Washington Center
Mon 09:32:52 AM 36.6656 -79.4114 217° Southwest 449 517 38,000  Level Atlanta Center
Mon 09:33:52 AM 36.5667 -79.5025 216° Southwest 449 517 38,000  Level Atlanta Center
Mon 09:34:52 AM 36.4719 -79.5878 215° Southwest 460 529 38,000  Level Atlanta Center
Mon 09:35:53 AM 36.3708 -79.6761 217° Southwest 460 529 38,000  Level Atlanta Center
Mon 09:36:52 AM 36.2678 -79.7717 216° Southwest 460 529 38,000  Level Atlanta Center
Mon 09:37:52 AM 36.1667 -79.8619 216° Southwest 460 529 38,000  Level Atlanta Center
Mon 09:38:52 AM 36.0553 -79.9603 204° Southwest 455 524 38,000  Level Atlanta Center
Mon 09:39:52 AM 35.9383 -80.0250 204° Southwest 455 524 38,000  Level Atlanta Center
Mon 09:40:52 AM 35.8217 -80.0897 201° Southwest 455 524 38,000  Level Atlanta Center
Mon 09:41:52 AM 35.7044 -80.1464 203° Southwest 460 529 38,000  Level Atlanta Center
Mon 09:42:52 AM 35.5978 -80.2028 201° Southwest 460 529 38,000  Level Atlanta Center
Mon 09:43:52 AM 35.4806 -80.2592 203° Southwest 460 529 38,000  Level Atlanta Center
Mon 09:44:52 AM 35.3636 -80.3206 202° Southwest 460 529 38,000  Level Atlanta Center
Mon 09:45:52 AM 35.2342 -80.3847 202° Southwest 460 529 38,000  Level Atlanta Center
Mon 09:48:10 AM 34.9656 -80.5139 202° Southwest 452 520 38,000  Level Jacksonville Center
Mon 09:49:10 AM 34.8456 -80.5731 205° Southwest 452 520 38,000  Level Jacksonville Center
Mon 09:50:10 AM 34.7361 -80.6342 200° South 432 497 38,000  Level Jacksonville Center
Mon 09:51:09 AM 34.6306 -80.6797 202° Southwest 438 504 38,000  Level Jacksonville Center
Mon 09:52:09 AM 34.5086 -80.7408 202° Southwest 459 528 38,000  Level Jacksonville Center
Mon 09:53:10 AM 34.3908 -80.7992 174° South 459 528 38,000  Level Jacksonville Center
Mon 09:54:10 AM 34.2694 -80.7844 146° Southeast 430 495 38,000  Level Jacksonville Center
Mon 09:55:10 AM 34.1636 -80.6967 143° Southeast 425 489 38,000  Level Jacksonville Center
Mon 09:56:10 AM 34.0578 -80.6017 158° South 450 518 38,000 -50 Level Jacksonville Center
Mon 09:57:10 AM 33.9375 -80.5422 173° South 458 527 37,900  Descending Jacksonville Center
Mon 09:58:10 AM 33.8100 -80.5231 175° South 458 527 38,000 50 Climbing Jacksonville Center
Mon 09:59:10 AM 33.6867 -80.5114 209° Southwest 458 527 38,000  Level Jacksonville Center
Mon 10:00:10 AM 33.5775 -80.5842 239° Southwest 436 502 38,000  Level Jacksonville Center
Mon 10:01:10 AM 33.5169 -80.7053 241° Southwest 403 464 38,000  Level Jacksonville Center
Mon 10:02:10 AM 33.4586 -80.8336 241° Southwest 419 482 38,000  Level Jacksonville Center
Mon 10:03:10 AM 33.4022 -80.9569 242° Southwest 431 496 38,000  Level Jacksonville Center
Mon 10:04:10 AM 33.3456 -81.0850 230° Southwest 436 502 38,000  Level Jacksonville Center
Mon 10:05:10 AM 33.2678 -81.1958 207° Southwest 441 507 38,000 -50 Level Jacksonville Center
Mon 10:06:10 AM 33.1600 -81.2625 208° Southwest 431 496 37,900 -550 Descending Jacksonville Center
Mon 10:07:10 AM 33.0503 -81.3314 206° Southwest 438 504 36,900 -1,000 Descending Jacksonville Center
Mon 10:08:10 AM 32.9425 -81.3950 207° Southwest 444 511 35,900 -450 Descending Jacksonville Center
Mon 10:09:10 AM 32.8306 -81.4636 206° Southwest 444 511 36,000  Climbing Jacksonville Center
Mon 10:10:10 AM 32.7228 -81.5269 207° Southwest 444 511 35,900  Descending Jacksonville Center
Mon 10:11:10 AM 32.6047 -81.5978 207° Southwest 439 505 36,000 50 Climbing Jacksonville Center
Mon 10:12:10 AM 32.4967 -81.6636 207° Southwest 444 511 36,000  Level Jacksonville Center
Mon 10:13:10 AM 32.3969 -81.7239 205° Southwest 444 511 36,000  Level Jacksonville Center
Mon 10:14:10 AM 32.2767 -81.7917 207° Southwest 444 511 36,000  Level Jacksonville Center
Mon 10:15:10 AM 32.1769 -81.8519 206° Southwest 449 517 36,000  Level Jacksonville Center
Mon 10:16:10 AM 32.0542 -81.9219 201° Southwest 449 517 36,000  Level Jacksonville Center
Mon 10:17:10 AM 31.9397 -81.9744 184° South 443 510 36,000  Level Jacksonville Center
Mon 10:18:10 AM 31.8250 -81.9831 184° South 456 525 36,000  Level Jacksonville Center
Mon 10:19:10 AM 31.6894 -81.9942 186° South 456 525 36,000  Level Jacksonville Center
Mon 10:20:10 AM 31.5747 -82.0072 182° South 461 531 36,000  Level Jacksonville Center
Mon 10:21:10 AM 31.4328 -82.0136 187° South 467 537 36,000  Level Jacksonville Center
Mon 10:22:10 AM 31.3264 -82.0292 185° South 461 531 36,000 -50 Level Jacksonville Center
Mon 10:23:10 AM 31.2011 -82.0425 183° South 461 531 35,900  Descending Jacksonville Center
Mon 10:24:10 AM 31.0781 -82.0508 185° South 461 531 36,000 50 Climbing Jacksonville Center
Mon 10:25:10 AM 30.9550 -82.0642 183° South 461 531 36,000  Level Jacksonville Center
Mon 10:26:10 AM 30.8297 -82.0725 185° South 461 531 36,000  Level Jacksonville Center
Mon 10:27:10 AM 30.7025 -82.0856 186° South 461 531 36,000 -50 Level Jacksonville Center
Mon 10:28:10 AM 30.5794 -82.1011 182° South 461 531 35,900 -50 Descending Jacksonville Center
Mon 10:29:10 AM 30.4561 -82.1069 184° South 455 524 35,900 50 Level Jacksonville Center
Mon 10:30:09 AM 30.3311 -82.1175 185° South 455 524 36,000 50 Climbing Jacksonville Center
Mon 10:31:10 AM 30.2036 -82.1306 173° South 460 529 36,000 -50 Level Jacksonville Center
Mon 10:32:10 AM 30.0803 -82.1125 170° South 454 522 35,900 -600 Descending Jacksonville Center
Mon 10:33:10 AM 29.9425 -82.0847 171° South 454 522 34,800 -1,050 Descending Jacksonville Center
Mon 10:34:10 AM 29.8211 -82.0619 168° South 449 517 33,800 -850 Descending Jacksonville Center
Mon 10:35:10 AM 29.7144 -82.0364 172° South 444 511 33,100 -450 Descending Jacksonville Center
Mon 10:36:10 AM 29.5786 -82.0136 171° South 449 517 32,900 -50 Descending Jacksonville Center
Mon 10:37:10 AM 29.4594 -81.9911 169° South 449 517 33,000  Climbing Jacksonville Center
Mon 10:38:10 AM 29.3361 -81.9636 171° South 449 517 32,900 -50 Descending Jacksonville Center
Mon 10:39:10 AM 29.2400 -81.9453 169° South 449 517 32,900 -300 Level Jacksonville Center
Mon 10:40:10 AM 29.1042 -81.9158 171° South 449 517 32,300 -1,333 Descending Jacksonville Center
Mon 10:42:37 AM 28.7936 -81.8583 170° South 459 528 28,300 -1,449 Descending Miami Center
Mon 10:43:37 AM 28.6756 -81.8339 171° South 454 522 27,300 -700 Descending Miami Center
Mon 10:44:37 AM 28.5614 -81.8125 166° South 434 499 26,900 -400 Descending Miami Center
Mon 10:45:37 AM 28.4500 -81.7814 167° South 428 493 26,500 -700 Descending Miami Center
Mon 10:46:37 AM 28.3342 -81.7506 164° South 415 478 25,500 -1,000 Descending Miami Center
Mon 10:47:37 AM 28.2372 -81.7181 166° South 402 463 24,500 -1,000 Descending Miami Center
Mon 10:48:37 AM 28.1319 -81.6875 172° South 392 451 23,500 -1,000 Descending Miami Center
Mon 10:49:37 AM 28.0258 -81.6714 195° South 392 451 22,500 -1,000 Descending Miami Center
Mon 10:50:37 AM 27.9289 -81.7000 195° South 367 422 21,500 -1,000 Descending Miami Center
Mon 10:51:37 AM 27.8361 -81.7289 192° South 361 415 20,500 -1,000 Descending Miami Center
Mon 10:52:37 AM 27.7372 -81.7528 142° Southeast 361 415 19,500 -1,000 Descending Miami Center
Mon 10:53:37 AM 27.6683 -81.6914 120° Southeast 307 353 18,500 -850 Descending Miami Center
Mon 10:54:37 AM 27.6311 -81.6194 122° Southeast 290 334 17,800 -850 Descending Miami Center
Mon 10:55:37 AM 27.5878 -81.5403 162° South 290 334 16,800 -1,100 Descending Miami Center
Mon 10:56:37 AM 27.5075 -81.5114 178° South 280 322 15,600 -1,100 Descending Miami Center
Mon 10:57:37 AM 27.4219 -81.5078 177° South 286 329 14,600 -1,000 Descending Miami Center
Mon 10:58:37 AM 27.3344 -81.5019 178° South 299 344 13,600 -1,000 Descending Miami Center
Mon 10:59:37 AM 27.2469 -81.4986 176° South 312 359 12,600 -1,000 Descending Miami Center
Mon 11:00:37 AM 27.1636 -81.4928 177° South 312 359 11,600 -1,000 Descending Miami Center
Mon 11:01:37 AM 27.0825 -81.4872 171° South 307 353 10,600 -800 Descending Miami Center
Mon 11:02:37 AM 26.9953 -81.4722 157° South 302 348 10,000 -300 Descending Miami Center
Mon 11:03:37 AM 26.9253 -81.4392 156° South 278 320 10,000  Level Miami Center
Mon 11:04:37 AM 26.8656 -81.4089 160° South 273 314 10,000 -450 Level Miami Center
Mon 11:05:37 AM 26.7956 -81.3806 189° South 267 307 9,100 -1,000 Descending Miami Center
Mon 11:06:37 AM 26.7094 -81.3958 209° Southwest 273 314 8,000 -1,050 Descending Miami Center
Mon 11:07:37 AM 26.6414 -81.4372 232° Southwest 278 320 7,000 -950 Descending Miami Center
Mon 11:08:37 AM 26.5889 -81.5119 236° Southwest 290 334 6,100 -950 Descending Miami Center
Mon 11:09:37 AM 26.5447 -81.5844 266° West 310 357 5,100 -1,000 Descending Miami Center
Mon 11:17:15 AM 26.5333 -81.7500 302° West  Level FlightAware Approximate
Mon 11:18:15 AM 26.5988 -81.8695 121° Southeast  Level Estimated
Mon 11:19:15 AM 26.5333 -81.7500 302° West  Level FlightAware Approximate
Mon 11:20:15 AM 26.5988 -81.8695 302° West  Level Estimated

Login

Don't have an account? Register now (free) for customized features, flight alerts, and more!